Funchalense 5 — CSKN — position and weather

sailwx.info

Track history (hours):
 
Tides and Currents Weather Stations Pressure Air Temp Water Temp Dewpoint Dewpoint Depression Visibility Wind Speed Wind Dir Waves Ship Positions

Funchalense 5

Last reported at 2016-Jul-28 11:03 UTC. Time now 2016-Jul-29 14:02 UTC.
Position N 39°38' W 009°35'.

Length 127 m; draft 6.2 m.

Type: Ship. MMSI: 255804250.

Date/timePositionNaut miles runAvg speedWind from/ knotsBaromVisibWave heightAir tempDewpointWater temp
2016-Jul-28 11:03N 39°38' W 009°35'2214.3
2016-Jul-28 09:31N 39°18' W 009°48'1414.4
2016-Jul-28 08:33N 39°05' W 009°56'1413.7
2016-Jul-28 07:34N 38°56' W 010°09'1612.5
2016-Jul-28 06:19N 38°42' W 010°17'2212.4
2016-Jul-28 04:30N 38°20' W 010°25'1512.0
2016-Jul-28 03:15N 38°06' W 010°32'35613.8
2016-Jul-27 01:24N 33°48' W 015°34'1314.2
2016-Jul-27 00:29N 33°37' W 015°43'1514.6
2016-Jul-26 23:26N 33°25' W 015°54'4515.0
2016-Jul-26 20:25N 32°50' W 016°29'103 2.7
2016-Jul-25 06:27N 34°03' W 015°02'6816.0
2016-Jul-25 02:10N 34°51' W 014°04'2616.3
2016-Jul-25 00:33N 35°10' W 013°42'1616.2
2016-Jul-24 23:33N 35°22' W 013°28'1616.1
2016-Jul-24 22:33N 35°33' W 013°14'4916.1
2016-Jul-24 19:30N 36°08' W 012°31'11316.2
2016-Jul-24 12:33N 37°27' W 010°51'3816.4
2016-Jul-24 10:13N 37°54' W 010°17'2615.9
2016-Jul-24 08:33N 38°13' W 009°53'1615.5
2016-Jul-24 07:33N 38°25' W 009°39'1715.6
2016-Jul-24 06:28N 38°36' W 009°24'1213.6
2016-Jul-24 05:33N 38°42' W 009°10'3 2.6
2016-Jul-24 04:31N 38°43' W 009°07'0 0.0
2016-Jul-24 03:31N 38°43' W 009°07'0 0.1
2016-Jul-24 02:31N 38°43' W 009°07'0 0.0
2016-Jul-24 01:33N 38°43' W 009°07'0 0.0
2016-Jul-23 21:28N 38°43' W 009°07'0 0.0
2016-Jul-23 20:25N 38°43' W 009°07'0 0.0
2016-Jul-23 19:15N 38°43' W 009°07'0 0.0
2016-Jul-23 18:30N 38°43' W 009°07'0 0.0
2016-Jul-23 17:33N 38°43' W 009°07'0 0.0
2016-Jul-23 16:32N 38°43' W 009°07'0 0.0
2016-Jul-23 15:32N 38°43' W 009°07'0 0.0
2016-Jul-23 14:31N 38°43' W 009°07'0 0.0
2016-Jul-23 12:09N 38°43' W 009°07'0 0.1
2016-Jul-23 09:32N 38°43' W 009°07'7 6.2
2016-Jul-23 08:25N 38°41' W 009°15'1112.4
2016-Jul-23 07:30N 38°37' W 009°29'  
2016-Jul-21 01:34N 37°18' W 012°23'1515.3
2016-Jul-21 00:33N 37°06' W 012°35'1615.8
2016-Jul-20 23:33N 36°53' W 012°47'1515.4
2016-Jul-20 22:33N 36°41' W 012°58'1815.2
2016-Jul-20 21:23N 36°26' W 013°12'1315.3
2016-Jul-20 20:32N 36°16' W 013°21'1515.4
2016-Jul-20 19:33N 36°04' W 013°32'1515.4
2016-Jul-20 18:33N 35°51' W 013°44'1815.2
2016-Jul-20 17:23N 35°37' W 013°57'12115.4
2016-Jul-20 09:33N 33°60' W 015°24'161 3.6
2016-Jul-18 12:14N 35°47' W 012°57'  
Track history (hours):
 
Tides and Currents Weather Stations Pressure Air Temp Water Temp Dewpoint Dewpoint Depression Visibility Wind Speed Wind Dir Waves Ship Positions

Funchalense 5

Last reported at 2016-Jul-28 11:03 UTC. Time now 2016-Jul-29 14:02 UTC.
Position N 39°38' W 009°35'.

Length 127 m; draft 6.2 m.

Type: Ship. MMSI: 255804250.

Date/timePositionNaut miles runAvg speedWind from/ knotsBaromVisibWave heightAir tempDewpointWater temp
2016-Jul-28 11:03N 39°38' W 009°35'2214.3
2016-Jul-28 09:31N 39°18' W 009°48'1414.4
2016-Jul-28 08:33N 39°05' W 009°56'1413.7
2016-Jul-28 07:34N 38°56' W 010°09'1612.5
2016-Jul-28 06:19N 38°42' W 010°17'2212.4
2016-Jul-28 04:30N 38°20' W 010°25'1512.0
2016-Jul-28 03:15N 38°06' W 010°32'35613.8
2016-Jul-27 01:24N 33°48' W 015°34'1314.2
2016-Jul-27 00:29N 33°37' W 015°43'1514.6
2016-Jul-26 23:26N 33°25' W 015°54'4515.0
2016-Jul-26 20:25N 32°50' W 016°29'103 2.7
2016-Jul-25 06:27N 34°03' W 015°02'6816.0
2016-Jul-25 02:10N 34°51' W 014°04'2616.3
2016-Jul-25 00:33N 35°10' W 013°42'1616.2
2016-Jul-24 23:33N 35°22' W 013°28'1616.1
2016-Jul-24 22:33N 35°33' W 013°14'4916.1
2016-Jul-24 19:30N 36°08' W 012°31'11316.2
2016-Jul-24 12:33N 37°27' W 010°51'3816.4
2016-Jul-24 10:13N 37°54' W 010°17'2615.9
2016-Jul-24 08:33N 38°13' W 009°53'1615.5
2016-Jul-24 07:33N 38°25' W 009°39'1715.6
2016-Jul-24 06:28N 38°36' W 009°24'1213.6
2016-Jul-24 05:33N 38°42' W 009°10'3 2.6
2016-Jul-24 04:31N 38°43' W 009°07'0 0.0
2016-Jul-24 03:31N 38°43' W 009°07'0 0.1
2016-Jul-24 02:31N 38°43' W 009°07'0 0.0
2016-Jul-24 01:33N 38°43' W 009°07'0 0.0
2016-Jul-23 21:28N 38°43' W 009°07'0 0.0
2016-Jul-23 20:25N 38°43' W 009°07'0 0.0
2016-Jul-23 19:15N 38°43' W 009°07'0 0.0
2016-Jul-23 18:30N 38°43' W 009°07'0 0.0
2016-Jul-23 17:33N 38°43' W 009°07'0 0.0
2016-Jul-23 16:32N 38°43' W 009°07'0 0.0
2016-Jul-23 15:32N 38°43' W 009°07'0 0.0
2016-Jul-23 14:31N 38°43' W 009°07'0 0.0
2016-Jul-23 12:09N 38°43' W 009°07'0 0.1
2016-Jul-23 09:32N 38°43' W 009°07'7 6.2
2016-Jul-23 08:25N 38°41' W 009°15'1112.4
2016-Jul-23 07:30N 38°37' W 009°29'  
2016-Jul-21 01:34N 37°18' W 012°23'1515.3
2016-Jul-21 00:33N 37°06' W 012°35'1615.8
2016-Jul-20 23:33N 36°53' W 012°47'1515.4
2016-Jul-20 22:33N 36°41' W 012°58'1815.2
2016-Jul-20 21:23N 36°26' W 013°12'1315.3
2016-Jul-20 20:32N 36°16' W 013°21'1515.4
2016-Jul-20 19:33N 36°04' W 013°32'1515.4
2016-Jul-20 18:33N 35°51' W 013°44'1815.2
2016-Jul-20 17:23N 35°37' W 013°57'12115.4
2016-Jul-20 09:33N 33°60' W 015°24'161 3.6
2016-Jul-18 12:14N 35°47' W 012°57'  

Dump ship's entire track history